createdAt,value
2017-03-28T17:24:27.657Z,51.00
2017-03-28T17:25:25.221Z,51.40
2017-03-28T17:26:22.936Z,51.40
2017-03-28T17:27:20.702Z,51.50
2017-03-28T17:28:20.057Z,51.40
2017-03-28T17:29:17.680Z,51.20
2017-03-28T17:30:15.522Z,51.00
2017-03-28T17:31:13.204Z,50.70
2017-03-28T17:32:10.988Z,50.60
2017-03-28T17:33:09.395Z,50.60
2017-03-28T17:34:07.109Z,50.50
2017-03-28T17:35:05.557Z,51.10
2017-03-28T17:36:03.367Z,50.50
2017-03-28T17:37:00.988Z,50.50
2017-03-28T17:37:59.381Z,50.30
2017-03-28T17:38:56.991Z,50.30
2017-03-28T17:39:54.616Z,50.50
2017-03-28T17:40:52.236Z,50.70
2017-03-28T17:41:49.845Z,50.70
2017-03-28T17:42:47.496Z,50.80
2017-03-28T17:43:45.088Z,50.70
2017-03-28T17:44:42.689Z,50.70
2017-03-28T17:45:40.276Z,50.80
2017-03-28T17:46:37.892Z,50.90
2017-03-28T17:47:36.256Z,50.80
2017-03-28T17:48:33.839Z,50.80
2017-03-28T17:49:31.447Z,50.60
2017-03-28T17:50:29.037Z,50.70
2017-03-28T17:51:27.381Z,50.40
2017-03-28T17:52:24.981Z,50.40
2017-03-28T17:53:22.609Z,50.20
2017-03-28T17:54:20.302Z,50.20
2017-03-28T17:55:18.833Z,50.20
2017-03-28T17:56:17.209Z,50.30
2017-03-28T17:57:14.875Z,50.10
2017-03-28T17:58:12.484Z,50.30
2017-03-28T17:59:10.144Z,50.40
2017-03-28T18:00:07.716Z,50.30
2017-03-28T18:01:07.225Z,50.20
2017-03-28T18:02:04.939Z,50.10
2017-03-28T18:03:02.577Z,50.20
2017-03-28T18:04:00.275Z,50.30
2017-03-28T18:04:58.053Z,50.40
2017-03-28T18:05:55.663Z,50.40
2017-03-28T18:06:53.228Z,50.40
2017-03-28T18:07:50.841Z,50.50
2017-03-28T18:08:48.401Z,50.70
2017-03-28T18:09:46.853Z,50.80
2017-03-28T18:10:44.440Z,50.70
2017-03-28T18:11:42.806Z,50.40
2017-03-28T18:12:40.437Z,50.40
2017-03-28T18:13:38.069Z,50.30
2017-03-28T18:14:35.635Z,49.90
2017-03-28T18:15:33.376Z,49.30
2017-03-28T18:16:31.248Z,49.10
2017-03-28T18:17:28.820Z,49.30
2017-03-28T18:18:27.168Z,49.40
2017-03-28T18:19:24.879Z,49.30
2017-03-28T18:20:22.557Z,49.40
2017-03-28T18:21:20.152Z,49.50
2017-03-28T18:22:17.717Z,49.50
2017-03-28T18:23:15.377Z,49.50
2017-03-28T18:24:12.964Z,49.50
2017-03-28T18:25:10.548Z,49.40
2017-03-28T18:26:08.126Z,49.40
2017-03-28T18:27:05.816Z,49.30
2017-03-28T18:28:03.416Z,49.30
2017-03-28T18:29:00.992Z,49.30
2017-03-28T18:29:58.561Z,49.20
2017-03-28T18:30:56.220Z,49.10
2017-03-28T18:31:53.844Z,49.10
2017-03-28T18:32:52.040Z,48.60
2017-03-28T18:33:49.671Z,48.80
2017-03-28T18:34:47.272Z,48.80
2017-03-28T18:35:44.850Z,48.90
2017-03-28T18:36:44.015Z,49.00
2017-03-28T18:37:42.497Z,49.20
2017-03-28T18:38:40.953Z,49.30
2017-03-28T18:39:39.357Z,49.40
2017-03-28T18:40:51.151Z,49.40
2017-03-28T18:41:48.757Z,49.50
2017-03-28T18:42:46.581Z,49.60
2017-03-28T18:43:44.189Z,49.70
2017-03-28T18:44:41.774Z,49.70
2017-03-28T18:45:39.359Z,49.70
2017-03-28T18:46:36.988Z,49.80
2017-03-28T18:47:35.340Z,49.80
2017-03-28T18:48:33.014Z,49.80
2017-03-28T18:49:31.452Z,49.70
2017-03-28T18:50:29.028Z,49.70
2017-03-28T18:51:26.697Z,49.60
2017-03-28T18:52:24.308Z,49.70
2017-03-28T18:53:21.873Z,49.60
2017-03-28T18:54:19.521Z,49.50
2017-03-28T18:55:17.143Z,49.50
2017-03-28T18:56:15.533Z,49.40
2017-03-28T18:57:13.220Z,49.30
2017-03-28T18:58:11.573Z,49.20
2017-03-28T18:59:09.148Z,49.20
2017-03-28T19:00:06.752Z,49.10
2017-03-28T19:01:15.913Z,48.40
2017-03-28T19:02:13.733Z,48.90
2017-03-28T19:03:11.317Z,49.10
2017-03-28T19:04:09.388Z,49.30
2017-03-28T19:05:07.157Z,49.50
2017-03-28T19:06:04.742Z,49.50
2017-03-28T19:07:02.441Z,49.70
2017-03-28T19:08:00.056Z,49.80
2017-03-28T19:08:57.812Z,49.70
2017-03-28T19:09:55.512Z,49.90
2017-03-28T19:10:53.297Z,49.90
2017-03-28T19:11:50.880Z,50.00
2017-03-28T19:12:48.595Z,49.90
2017-03-28T19:13:46.199Z,49.90
2017-03-28T19:14:43.942Z,50.00
2017-03-28T19:15:42.973Z,50.00
2017-03-28T19:16:41.140Z,50.00
2017-03-28T19:17:38.740Z,50.00
2017-03-28T19:18:37.192Z,50.00
2017-03-28T19:19:35.006Z,49.90
2017-03-28T19:20:32.585Z,50.00
2017-03-28T19:21:30.172Z,50.00
2017-03-28T19:22:27.868Z,50.00
2017-03-28T19:23:25.584Z,49.90
2017-03-28T19:24:23.274Z,49.90
2017-03-28T19:25:20.863Z,50.00
2017-03-28T19:26:18.473Z,49.90
2017-03-28T19:27:16.040Z,50.00
2017-03-28T19:28:13.693Z,49.90
2017-03-28T19:29:11.297Z,49.80
2017-03-28T19:30:08.880Z,50.50
2017-03-28T19:31:08.263Z,49.80
2017-03-28T19:32:06.604Z,49.70
2017-03-28T19:33:04.180Z,49.70
2017-03-28T19:34:01.801Z,49.70
2017-03-28T19:34:59.396Z,49.80
